| time (UTC) | temp C | wind direction | speed KPH | gust KPH | rain 1hr cm | rain 24hr cm | rain mn cm | humidity % | barometer mb |
| 20260906111800 | 17 | 0 | 0.0 | 0.0 | 0.00 | 0.64 | 0.64 | 98 | 1007.6 |
| 20260906110900 | 17 | 0 | 0.0 | 0.0 | 0.00 | 0.64 | 0.64 | 98 | 1007.6 |
| 20260906110000 | 17 | 0 | 0.0 | 0.0 | 0.00 | 0.64 | 0.64 | 98 | 1007.6 |
| 20260906105100 | 18 | 337 | 0.0 | 8.0 | 0.00 | 0.64 | 0.64 | 98 | 1007.6 |
| 20260906102359 | 19 | 337 | 0.0 | 1.6 | 0.10 | 0.64 | 0.64 | 98 | 1007.6 |
| 20260906095700 | 18 | 0 | 0.0 | 0.0 | 0.10 | 0.64 | 0.64 | 98 | 1007.6 |
| 20260906094759 | 17 | 337 | 0.0 | 1.6 | 0.10 | 0.64 | 0.64 | 98 | 1007.6 |
| 20260906093900 | 17 | 0 | 0.0 | 0.0 | 0.10 | 0.64 | 0.64 | 98 | 1007.6 |
| 20260906092959 | 17 | 0 | 0.0 | 0.0 | 0.10 | 0.64 | 0.64 | 98 | 1007.6 |
| 20260906092059 | 17 | 337 | 0.0 | 12.9 | 0.10 | 0.53 | 0.53 | 98 | 1007.6 |
| 20260906091159 | 17 | 0 | 0.0 | 0.0 | 0.10 | 0.53 | 0.53 | 98 | 1007.6 |
| 20260906090259 | 17 | 0 | 0.0 | 0.0 | 0.10 | 0.53 | 0.53 | 98 | 1007.6 |
| 20260906085359 | 17 | 0 | 0.0 | 0.0 | 0.10 | 0.53 | 0.53 | 98 | 1007.6 |
| 20260906084459 | 17 | 0 | 0.0 | 0.0 | 0.10 | 0.53 | 0.53 | 98 | 1007.6 |
| 20260906083559 | 17 | 0 | 0.0 | 0.0 | 0.10 | 0.53 | 0.53 | 98 | 1007.6 |
| 20260906081759 | 17 | 0 | 0.0 | 0.0 | 0.00 | 0.43 | 0.43 | 98 | 1007.6 |
| 20260906080859 | 17 | 0 | 0.0 | 0.0 | 0.00 | 0.43 | 0.43 | 98 | 1007.6 |
| 20260906075959 | 17 | 0 | 0.0 | 0.0 | 0.00 | 0.43 | 0.43 | 98 | 1007.6 |
| 20260906075059 | 17 | 0 | 0.0 | 0.0 | 0.00 | 0.43 | 0.43 | 98 | 1007.6 |
| 20260906074159 | 17 | 0 | 0.0 | 0.0 | 0.00 | 0.43 | 0.43 | 98 | 1006.6 |
| 20260906073259 | 17 | 337 | 0.0 | 1.6 | 0.13 | 0.43 | 0.43 | 98 | 1006.6 |
| 20260906072359 | 17 | 337 | 0.0 | 1.6 | 0.23 | 0.43 | 0.43 | 98 | 1006.6 |
| 20260906065659 | 17 | 0 | 0.0 | 0.0 | 0.33 | 0.43 | 0.43 | 98 | 1007.6 |
| 20260906064759 | 17 | 337 | 0.0 | 4.8 | 0.33 | 0.43 | 0.43 | 98 | 1007.6 |
| 20260906063902 | 17 | 0 | 0.0 | 0.0 | 0.20 | 0.30 | 0.30 | 98 | 1007.6 |
| 20260906062958 | 17 | 0 | 0.0 | 0.0 | 0.20 | 0.30 | 0.30 | 98 | 1007.6 |
| 20260906062059 | 17 | 0 | 0.0 | 0.0 | 0.10 | 0.20 | 0.20 | 98 | 1007.6 |
| 20260906061159 | 17 | 0 | 0.0 | 0.0 | 0.00 | 0.10 | 0.10 | 98 | 1006.6 |
| 20260906060258 | 17 | 337 | 0.0 | 1.6 | 0.00 | 0.10 | 0.10 | 98 | 1006.6 |
| 20260906055358 | 17 | 337 | 0.0 | 1.6 | 0.10 | 0.10 | 0.10 | 98 | 1006.6 |
| 20260906054458 | 17 | 0 | 0.0 | 0.0 | 0.10 | 0.10 | 0.10 | 98 | 1006.6 |
| 20260906053558 | 17 | 0 | 0.0 | 0.0 | 0.10 | 0.10 | 0.10 | 98 | 1006.6 |
| 20260906052658 | 17 | 135 | 0.0 | 1.6 | 0.10 | 0.10 | 0.10 | 98 | 1006.6 |
| 20260906051758 | 17 | 33 | 0.0 | 6.4 | 0.10 | 0.10 | 0.10 | 98 | 1006.6 |
| 20260906050858 | 17 | 0 | 0.0 | 0.0 | 0.10 | 0.10 | 0.10 | 98 | 1006.6 |
| 20260906045959 | 17 | 159 | 0.0 | 12.9 | 0.10 | 0.10 | 0.10 | 96 | 1006.6 |
| 20260906045058 | 17 | 0 | 0.0 | 0.0 | 0.00 | 0.00 | 0.00 | 92 | 1006.6 |
| 20260906044158 | 17 | 0 | 0.0 | 0.0 | 0.00 | 0.00 | 0.00 | 87 | 1006.6 |
| 20260906043258 | 17 | 0 | 0.0 | 0.0 | 0.00 | 0.00 | 0.00 | 81 | 1006.6 |
| 20260906042358 | 18 | 292 | 0.0 | 4.8 | 0.00 | 0.00 | 0.00 | 74 | 1007.6 |
| 20260906041458 | 18 | 337 | 0.0 | 6.4 | 0.00 | 0.00 | 0.00 | 71 | 1007.6 |
| 20260906040558 | 18 | 337 | 0.0 | 6.4 | 0.00 | 0.00 | 0.00 | 70 | 1007.6 |
| 20260906035658 | 18 | 0 | 0.0 | 0.0 | 0.00 | 0.00 | 0.00 | 63 | 1007.6 |
| 20260906034758 | 19 | 0 | 0.0 | 0.0 | 0.00 | 0.00 | 0.00 | 60 | 1007.6 |
| 20260906033858 | 19 | 0 | 0.0 | 0.0 | 0.00 | 0.00 | 0.00 | 53 | 1007.6 |
| 20260906032958 | 19 | 0 | 0.0 | 0.0 | 0.00 | 0.00 | 0.00 | 50 | 1007.6 |
| 20260906032058 | 19 | 0 | 0.0 | 0.0 | 0.00 | 0.00 | 0.00 | 48 | 1007.6 |
| 20260906031158 | 19 | 0 | 0.0 | 0.0 | 0.00 | 0.00 | 0.00 | 45 | 1006.6 |
| 20260906030258 | 19 | 0 | 0.0 | 0.0 | 0.00 | 0.00 | 0.00 | 41 | 1006.6 |
| 20260906025358 | 19 | 112 | 0.0 | 8.0 | 0.00 | 0.00 | 0.00 | 40 | 1006.6 |
| 20260906024458 | 19 | 292 | 0.0 | 1.6 | 0.00 | 0.00 | 0.00 | 40 | 1006.6 |
| 20260906023558 | 19 | 0 | 0.0 | 0.0 | 0.00 | 0.00 | 0.00 | 40 | 1006.6 |
| 20260906022658 | 19 | 0 | 0.0 | 0.0 | 0.00 | 0.00 | 0.00 | 40 | 1006.6 |
| 20260906020857 | 19 | 158 | 1.6 | 8.0 | 0.00 | 0.00 | 0.00 | 39 | 1006.6 |
| 20260906015958 | 19 | 0 | 0.0 | 0.0 | 0.00 | 0.00 | 0.00 | 39 | 1006.6 |
| 20260906015058 | 19 | 203 | 0.0 | 1.6 | 0.00 | 0.00 | 0.00 | 38 | 1006.6 |
| 20260906013257 | 20 | 158 | 0.0 | 3.2 | 0.00 | 0.00 | 0.00 | 38 | 1006.6 |
| 20260906012357 | 20 | 184 | 0.0 | 8.0 | 0.00 | 0.00 | 0.00 | 38 | 1006.6 |
| 20260906011457 | 20 | 177 | 3.2 | 6.4 | 0.00 | 0.00 | 0.00 | 38 | 1006.6 |
| 20260906010557 | 20 | 112 | 1.6 | 6.4 | 0.00 | 0.00 | 0.00 | 39 | 1006.6 |
| 20260906005657 | 19 | 196 | 0.0 | 4.8 | 0.00 | 0.00 | 0.00 | 39 | 1006.6 |
| 20260906004757 | 19 | 181 | 0.0 | 1.6 | 0.00 | 0.00 | 0.00 | 40 | 1006.6 |
| 20260906003857 | 19 | 181 | 0.0 | 1.6 | 0.00 | 0.00 | 0.00 | 40 | 1006.6 |
| 20260906002957 | 19 | 121 | 0.0 | 6.4 | 0.00 | 0.00 | 0.00 | 41 | 1006.6 |
| 20260906002057 | 19 | 201 | 0.0 | 4.8 | 0.00 | 0.00 | 0.00 | 41 | 1006.6 |
| 20260906001157 | 19 | 203 | 0.0 | 1.6 | 0.00 | 0.00 | 0.00 | 42 | 1007.6 |
| 20260906000257 | 19 | 181 | 0.0 | 6.4 | 0.00 | 0.00 | 0.00 | 43 | 1007.6 |
| 20260905234457 | 19 | 165 | 0.0 | 4.8 | 0.00 | 0.00 | 0.00 | 44 | 1006.6 |
| 20260905233557 | 19 | 203 | 0.0 | 1.6 | 0.00 | 0.00 | 0.00 | 44 | 1007.6 |
| 20260905231757 | 20 | 0 | 0.0 | 0.0 | 0.00 | 0.00 | 0.00 | 43 | 1007.6 |
| 20260905230857 | 20 | 0 | 0.0 | 0.0 | 0.00 | 0.00 | 0.00 | 42 | 1007.6 |
| 20260905225957 | 20 | 0 | 0.0 | 0.0 | 0.00 | 0.00 | 0.00 | 42 | 1007.6 |
| 20260905225057 | 20 | 203 | 0.0 | 4.8 | 0.00 | 0.00 | 0.00 | 41 | 1007.6 |
| 20260905224157 | 20 | 0 | 0.0 | 0.0 | 0.00 | 0.00 | 0.00 | 40 | 1006.6 |
| 20260905223257 | 20 | 181 | 0.0 | 1.6 | 0.00 | 0.00 | 0.00 | 40 | 1006.6 |
| 20260905221457 | 20 | 198 | 0.0 | 6.4 | 0.00 | 0.00 | 0.00 | 40 | 1006.6 |
| 20260905215657 | 20 | 158 | 0.0 | 9.7 | 0.00 | 0.00 | 0.00 | 42 | 1007.6 |
| 20260905214757 | 20 | 0 | 0.0 | 0.0 | 0.00 | 0.00 | 0.00 | 43 | 1007.6 |
| 20260905213856 | 20 | 0 | 0.0 | 0.0 | 0.00 | 0.00 | 0.00 | 43 | 1007.6 |
| 20260905212956 | 20 | 0 | 0.0 | 0.0 | 0.00 | 0.00 | 0.00 | 43 | 1007.6 |
| 20260905212056 | 20 | 0 | 0.0 | 0.0 | 0.00 | 0.00 | 0.00 | 41 | 1008.6 |
| 20260905211157 | 20 | 0 | 0.0 | 0.0 | 0.00 | 0.00 | 0.00 | 37 | 1008.6 |
| 20260905205349 | 22 | 314 | 0.0 | 1.6 | 0.00 | 0.00 | 0.00 | 23 | 1008.6 |
| 20260905204449 | 23 | 314 | 0.0 | 4.8 | 0.00 | 0.00 | 0.00 | 23 | 1008.6 |
| 20260905203549 | 23 | 154 | 0.0 | 4.8 | 0.00 | 0.00 | 0.00 | 22 | 1009.6 |
| 20260905202649 | 23 | 263 | 0.0 | 6.4 | 0.00 | 0.00 | 0.00 | 22 | 1009.6 |
| 20260905201749 | 23 | 0 | 0.0 | 0.0 | 0.00 | 0.00 | 0.00 | 23 | 1009.6 |
| 20260905200849 | 23 | 182 | 0.0 | 6.4 | 0.00 | 0.00 | 0.00 | 23 | 1007.6 |
| 20260905195949 | 23 | 158 | 0.0 | 6.4 | 0.00 | 0.00 | 0.00 | 23 | 1007.6 |
| 20260905194149 | 23 | 0 | 0.0 | 0.0 | 0.00 | 0.00 | 0.00 | 22 | 1008.6 |
| 20260905193249 | 23 | 158 | 0.0 | 4.8 | 0.00 | 0.00 | 0.00 | 22 | 1008.6 |
| 20260905191448 | 23 | 0 | 0.0 | 0.0 | 0.00 | 0.00 | 0.00 | 22 | 1008.6 |
| 20260905185648 | 23 | 171 | 1.6 | 6.4 | 0.00 | 0.00 | 0.00 | 23 | 1009.6 |
| 20260905184749 | 23 | 0 | 0.0 | 0.0 | 0.00 | 0.00 | 0.00 | 23 | 1009.6 |
| 20260905183848 | 23 | 158 | 0.0 | 4.8 | 0.00 | 0.00 | 0.00 | 23 | 1009.6 |
| 20260905182949 | 23 | 158 | 1.6 | 4.8 | 0.00 | 0.00 | 0.00 | 23 | 1009.6 |
| 20260905182048 | 22 | 225 | 0.0 | 4.8 | 0.00 | 0.00 | 0.00 | 24 | 1009.6 |
| 20260905181148 | 22 | 0 | 0.0 | 0.0 | 0.00 | 0.00 | 0.00 | 24 | 1009.6 |
| 20260905174448 | 22 | 203 | 0.0 | 4.8 | 0.00 | 0.00 | 0.00 | 24 | 1009.6 |
| 20260905173548 | 22 | 0 | 0.0 | 0.0 | 0.00 | 0.00 | 0.00 | 24 | 1009.6 |
| 20260905172648 | 22 | 0 | 0.0 | 0.0 | 0.00 | 0.00 | 0.00 | 24 | 1009.6 |
| 20260905170848 | 22 | 0 | 0.0 | 0.0 | 0.00 | 0.00 | 0.00 | 24 | 1009.6 |
| 20260905165948 | 22 | 0 | 0.0 | 0.0 | 0.00 | 0.00 | 0.00 | 24 | 1009.6 |
| 20260905165048 | 22 | 0 | 0.0 | 0.0 | 0.00 | 0.00 | 0.00 | 24 | 1009.6 |
| 20260905163248 | 22 | 0 | 0.0 | 0.0 | 0.00 | 0.00 | 0.00 | 23 | 1009.6 |
| 20260905162348 | 22 | 0 | 0.0 | 0.0 | 0.00 | 0.00 | 0.00 | 23 | 1009.6 |
| 20260905161448 | 22 | 0 | 0.0 | 0.0 | 0.00 | 0.00 | 0.00 | 22 | 1009.6 |
| 20260905155648 | 22 | 0 | 0.0 | 0.0 | 0.00 | 0.00 | 0.00 | 16 | 1009.6 |
| 20260905154748 | 22 | 0 | 0.0 | 0.0 | 0.00 | 0.00 | 0.00 | 14 | 1009.6 |
| 20260905153848 | 22 | 0 | 0.0 | 0.0 | 0.00 | 0.00 | 0.00 | 8 | 1009.6 |
| 20260905152948 | 23 | 0 | 0.0 | 0.0 | 0.00 | 0.00 | 0.00 | 3 | 1009.6 |
| 20260905152048 | 23 | 0 | 0.0 | 0.0 | 0.00 | 0.00 | 0.00 | 2 | 1009.6 |
| 20260905151148 | 23 | 0 | 0.0 | 0.0 | 0.00 | 0.00 | 0.00 | 2 | 1009.6 |
| 20260905150248 | 24 | 0 | 0.0 | 0.0 | 0.00 | 0.00 | 0.00 | 2 | 1009.6 |
| 20260905145348 | 24 | 0 | 0.0 | 0.0 | 0.00 | 0.00 | 0.00 | 2 | 1010.6 |
| 20260905144447 | 25 | 174 | 0.0 | 11.3 | 0.00 | 0.00 | 0.00 | 2 | 1010.6 |
| 20260905143548 | 25 | 207 | 0.0 | 8.0 | 0.00 | 0.00 | 0.00 | 2 | 1009.6 |
| 20260905142647 | 25 | 292 | 0.0 | 3.2 | 0.00 | 0.00 | 0.00 | 2 | 1009.6 |
| 20260905141747 | 26 | 158 | 0.0 | 4.8 | 0.00 | 0.00 | 0.00 | 2 | 1009.6 |
| 20260905140847 | 26 | 292 | 0.0 | 6.4 | 0.00 | 0.00 | 0.00 | 2 | 1010.6 |
| 20260905135947 | 26 | 182 | 0.0 | 6.4 | 0.00 | 0.00 | 0.00 | 2 | 1010.6 |
| 20260905135047 | 26 | 256 | 0.0 | 6.4 | 0.00 | 0.00 | 0.00 | 2 | 1010.6 |
| 20260905134147 | 26 | 200 | 4.8 | 12.9 | 0.00 | 0.00 | 0.00 | 2 | 1010.6 |
| 20260905132347 | 27 | 146 | 0.0 | 6.4 | 0.00 | 0.00 | 0.00 | 2 | 1010.6 |
| 20260905131447 | 27 | 141 | 0.0 | 9.7 | 0.00 | 0.00 | 0.00 | 2 | 1010.6 |
| 20260905125647 | 27 | 201 | 4.8 | 6.4 | 0.00 | 0.00 | 0.00 | 2 | 1010.6 |
| 20260905124747 | 27 | 158 | 0.0 | 3.2 | 0.00 | 0.00 | 0.00 | 2 | 1010.6 |
| 20260905123847 | 27 | 122 | 3.2 | 11.3 | 0.00 | 0.00 | 0.00 | 2 | 1010.6 |
| 20260905122947 | 28 | 108 | 0.0 | 4.8 | 0.00 | 0.00 | 0.00 | 2 | 1010.6 |
| 20260905120247 | 28 | 166 | 1.6 | 6.4 | 0.00 | 0.00 | 0.00 | 2 | 1011.6 |
| 20260905115347 | 29 | 285 | 0.0 | 6.4 | 0.00 | 0.00 | 0.00 | 2 | 1011.6 |
| 20260905114447 | 28 | 248 | 3.2 | 8.0 | 0.00 | 0.00 | 0.00 | 2 | 1011.6 |
| 20260905113547 | 29 | 158 | 0.0 | 4.8 | 0.00 | 0.00 | 0.00 | 2 | 1011.6 |
| 20260905112647 | 29 | 144 | 0.0 | 4.8 | 0.00 | 0.00 | 0.00 | 2 | 1011.6 |